Aviation Digital Data Service (ADDS)

Output produced by METARs form (2316 UTC 18 October 2019)
found at http://www.aviationweather.gov/metar/data/
 
Forecast for: VLVT (VIENTIANE/WATTAY, LA)
Text: TAF VLVT 181700Z 1818/1918 36006KT 8000 SCT020 FEW050
Forecast period: 1800 UTC 18 October 2019 to 1800 UTC 19 October 2019
Forecast type: FROM: standard forecast or significant change
Winds: from the N (360 degrees) at 7 MPH (6 knots; 3.1 m/s)
Visibility: 5 miles (8 km)
Ceiling: at least 12,000 feet AGL
Clouds: scattered clouds at 2000 feet AGL
few clouds at 5000 feet AGL
Weather: no significant weather forecast for this period
Text: TEMPO 1818/1823 4000 BR FEW050
Forecast period: 1800 to 2300 UTC 18 October 2019
Forecast type: TEMPORARY: The following changes expected for less than half the time period
Visibility: 2.49 miles (4.01 km)
Ceiling: at least 12,000 feet AGL
Clouds: few clouds at 5000 feet AGL
Weather: BR  (mist)